createdAt,value
2023-03-20T00:01:24.199Z,73.10
2023-03-20T00:06:21.406Z,72.00
2023-03-20T00:08:50.729Z,75.80
2023-03-20T00:11:31.530Z,69.30
2023-03-20T00:14:03.146Z,77.60
2023-03-20T00:16:36.258Z,77.90
2023-03-20T00:19:04.203Z,70.90
2023-03-20T00:21:31.696Z,73.00
2023-03-20T00:23:59.092Z,78.10
2023-03-20T00:26:31.586Z,79.20
2023-03-20T00:28:58.660Z,102.70
2023-03-20T00:31:29.363Z,96.50
2023-03-20T00:34:01.728Z,96.30
2023-03-20T00:36:28.960Z,112.70
2023-03-20T00:38:59.624Z,88.40
2023-03-20T00:41:46.627Z,84.20
2023-03-20T00:44:37.206Z,89.70
2023-03-20T00:47:12.646Z,102.20
2023-03-20T00:49:39.487Z,100.20
2023-03-20T00:52:09.211Z,102.30
2023-03-20T00:54:36.433Z,89.10
2023-03-20T00:57:18.722Z,81.80
2023-03-20T01:00:02.461Z,76.90
2023-03-20T01:02:31.527Z,73.10
2023-03-20T01:05:00.025Z,70.10
2023-03-20T01:07:28.050Z,71.70
2023-03-20T01:09:58.746Z,70.60
2023-03-20T01:12:25.839Z,73.90
2023-03-20T01:14:57.227Z,78.30
2023-03-20T01:17:26.323Z,68.70
2023-03-20T01:19:53.414Z,74.60
2023-03-20T01:22:20.750Z,67.50
2023-03-20T01:24:48.168Z,63.80
2023-03-20T01:27:17.811Z,65.80
2023-03-20T01:29:44.819Z,71.30
2023-03-20T01:32:14.883Z,64.60
2023-03-20T01:34:42.585Z,70.80
2023-03-20T01:37:13.887Z,69.50
2023-03-20T01:39:41.286Z,68.60
2023-03-20T01:42:08.412Z,70.10
2023-03-20T01:44:36.533Z,70.60
2023-03-20T01:47:16.063Z,75.00
2023-03-20T01:50:22.514Z,66.00
2023-03-20T01:52:57.474Z,64.60
2023-03-20T01:55:25.558Z,69.40
2023-03-20T01:58:00.045Z,68.90
2023-03-20T02:00:27.363Z,62.80
2023-03-20T02:02:55.666Z,64.00
2023-03-20T02:05:48.910Z,73.20
2023-03-20T02:08:37.692Z,69.50
2023-03-20T02:11:05.540Z,69.60
2023-03-20T02:13:33.260Z,63.80
2023-03-20T02:17:05.658Z,65.40
2023-03-20T02:20:04.419Z,82.30
2023-03-20T02:22:53.072Z,81.10
2023-03-20T02:25:44.425Z,78.20
2023-03-20T02:28:39.822Z,73.80
2023-03-20T02:31:21.843Z,71.10
2023-03-20T02:34:26.177Z,70.20
2023-03-20T02:37:18.144Z,67.60
2023-03-20T02:40:05.929Z,66.60
2023-03-20T02:42:45.783Z,72.40
2023-03-20T02:50:19.334Z,66.50
2023-03-20T02:53:06.839Z,73.50
2023-03-20T02:55:45.241Z,63.50
2023-03-20T02:58:24.472Z,58.60
2023-03-20T03:01:01.778Z,64.30
2023-03-20T03:03:34.579Z,62.10
2023-03-20T03:06:11.231Z,59.70
2023-03-20T03:08:43.492Z,57.60
2023-03-20T03:11:10.646Z,64.10
2023-03-20T03:13:44.018Z,53.90
2023-03-20T03:16:16.606Z,56.90
2023-03-20T03:18:46.853Z,60.30
2023-03-20T03:21:18.829Z,56.30
2023-03-20T03:23:48.820Z,62.40
2023-03-20T03:26:22.968Z,63.10
2023-03-20T03:28:56.985Z,56.80
2023-03-20T03:31:25.500Z,58.90
2023-03-20T03:33:55.693Z,59.70
2023-03-20T03:36:26.279Z,61.80
2023-03-20T03:39:13.305Z,53.40
2023-03-20T03:41:46.364Z,59.80
2023-03-20T03:44:35.360Z,57.10
2023-03-20T03:47:21.398Z,59.40
2023-03-20T03:49:58.710Z,58.60
2023-03-20T03:52:28.470Z,61.80
2023-03-20T03:57:45.894Z,61.90
2023-03-20T04:00:19.900Z,59.10
2023-03-20T04:02:53.521Z,58.90
2023-03-20T04:05:22.126Z,58.20
2023-03-20T04:07:55.042Z,58.70
2023-03-20T04:10:22.261Z,59.50
2023-03-20T04:12:49.153Z,61.60
2023-03-20T04:15:17.114Z,60.30
2023-03-20T04:17:44.562Z,62.90
2023-03-20T04:20:13.506Z,63.90
2023-03-20T04:22:40.783Z,56.30
2023-03-20T04:25:20.215Z,59.00
2023-03-20T04:27:47.648Z,59.40
2023-03-20T04:30:25.088Z,56.60
2023-03-20T04:33:21.926Z,55.50
2023-03-20T04:36:12.659Z,60.30
2023-03-20T04:38:40.715Z,59.30
2023-03-20T04:41:08.961Z,62.40
2023-03-20T04:43:35.983Z,56.40
2023-03-20T04:46:02.969Z,50.90
2023-03-20T04:48:29.887Z,58.90
2023-03-20T04:50:57.624Z,54.10
2023-03-20T04:53:30.444Z,61.90
2023-03-20T04:55:57.269Z,68.30
2023-03-20T04:58:25.934Z,55.90
2023-03-20T05:00:52.877Z,65.00
2023-03-20T05:03:22.544Z,60.40
2023-03-20T05:05:51.094Z,54.50
2023-03-20T05:08:18.518Z,56.60
2023-03-20T05:10:45.645Z,57.70
2023-03-20T05:13:45.105Z,65.20
2023-03-20T05:16:41.602Z,63.20
2023-03-20T05:19:31.117Z,62.40
2023-03-20T05:22:07.235Z,58.40
2023-03-20T05:24:40.298Z,74.60
2023-03-20T05:27:36.444Z,69.30
2023-03-20T05:30:21.898Z,67.80
2023-03-20T05:33:08.525Z,68.30
2023-03-20T05:35:46.605Z,79.00
2023-03-20T05:38:39.980Z,77.40
2023-03-20T05:41:29.742Z,72.90
2023-03-20T05:44:19.349Z,74.90
2023-03-20T05:47:06.799Z,79.00
2023-03-20T05:49:57.847Z,74.30
2023-03-20T05:52:34.823Z,68.30
2023-03-20T05:55:12.224Z,65.60
2023-03-20T05:57:48.747Z,64.40
2023-03-20T06:00:48.113Z,61.80
2023-03-20T06:03:41.432Z,60.20
2023-03-20T06:06:12.156Z,66.50
2023-03-20T06:08:39.165Z,55.40
2023-03-20T06:11:06.932Z,58.00
2023-03-20T06:13:35.772Z,57.20
2023-03-20T06:16:02.659Z,59.50
2023-03-20T06:18:29.680Z,55.20
2023-03-20T06:20:57.826Z,56.00
2023-03-20T06:23:26.233Z,56.70
2023-03-20T06:25:53.477Z,62.60
2023-03-20T06:28:20.740Z,55.70
2023-03-20T06:30:51.952Z,59.60
2023-03-20T06:33:19.148Z,54.40
2023-03-20T06:35:59.582Z,58.10
2023-03-20T06:38:27.755Z,53.40
2023-03-20T06:40:54.800Z,51.50
2023-03-20T06:43:22.743Z,51.80
2023-03-20T06:45:51.848Z,55.70
2023-03-20T06:48:22.405Z,47.40
2023-03-20T06:50:50.883Z,47.40
2023-03-20T06:53:20.150Z,47.70
2023-03-20T06:55:55.032Z,46.90
2023-03-20T06:58:21.846Z,43.20
2023-03-20T07:00:50.416Z,41.90
2023-03-20T07:03:17.568Z,44.00
2023-03-20T07:05:46.330Z,41.60
2023-03-20T07:08:13.319Z,43.00
2023-03-20T07:10:40.209Z,38.40
2023-03-20T07:13:07.152Z,44.80
2023-03-20T07:15:35.276Z,41.60
2023-03-20T07:18:02.877Z,43.00
2023-03-20T07:20:29.955Z,36.00
2023-03-20T07:22:56.899Z,39.70
2023-03-20T07:25:41.306Z,35.40
2023-03-20T07:28:09.433Z,39.40
2023-03-20T07:30:37.637Z,40.20
2023-03-20T07:33:05.196Z,34.30
2023-03-20T07:35:33.140Z,35.60
2023-03-20T07:38:00.633Z,35.10
2023-03-20T07:40:28.359Z,33.80
2023-03-20T07:42:59.087Z,41.10
2023-03-20T07:45:48.706Z,36.30
2023-03-20T07:48:19.394Z,34.60
2023-03-20T07:50:46.365Z,38.10
2023-03-20T07:53:13.510Z,35.80
2023-03-20T07:55:40.875Z,35.30
2023-03-20T07:58:10.179Z,31.70
2023-03-20T08:00:37.109Z,33.00
2023-03-20T08:03:04.609Z,33.80
2023-03-20T08:05:31.684Z,32.00
2023-03-20T08:07:58.706Z,34.30
2023-03-20T08:10:25.913Z,32.20
2023-03-20T08:12:52.800Z,31.50
2023-03-20T08:15:19.706Z,34.60
2023-03-20T08:17:46.932Z,31.10
2023-03-20T08:20:16.472Z,35.70
2023-03-20T08:25:14.170Z,34.80
2023-03-20T08:27:41.217Z,28.50
2023-03-20T08:30:09.810Z,32.30
2023-03-20T08:32:36.998Z,32.90
2023-03-20T08:35:04.169Z,29.60
2023-03-20T08:37:31.219Z,32.00
2023-03-20T08:39:58.052Z,37.00
2023-03-20T08:42:24.954Z,31.60
2023-03-20T08:44:52.175Z,26.90
2023-03-20T08:47:19.766Z,26.80
2023-03-20T08:49:46.603Z,24.70
2023-03-20T08:52:14.958Z,26.30
2023-03-20T08:54:41.879Z,27.40
2023-03-20T08:57:08.879Z,24.70
2023-03-20T08:59:35.769Z,29.50
2023-03-20T09:02:02.706Z,26.60
2023-03-20T09:04:29.890Z,24.50
2023-03-20T09:06:57.306Z,25.50
2023-03-20T09:09:29.699Z,26.30
2023-03-20T09:12:01.685Z,24.90
2023-03-20T09:14:29.530Z,25.00
2023-03-20T09:16:56.484Z,24.60
2023-03-20T09:19:23.487Z,28.90
2023-03-20T09:21:50.370Z,28.70
2023-03-20T09:24:17.378Z,27.00
2023-03-20T09:26:44.421Z,28.40
2023-03-20T09:29:11.449Z,26.40
2023-03-20T09:31:38.568Z,27.70
2023-03-20T09:34:05.646Z,26.50
2023-03-20T09:36:33.815Z,26.40
2023-03-20T09:39:01.160Z,25.90
2023-03-20T09:41:28.588Z,24.90
2023-03-20T09:44:28.913Z,24.70
2023-03-20T09:47:23.831Z,21.60
2023-03-20T09:50:14.893Z,23.60
2023-03-20T09:52:57.594Z,25.60
2023-03-20T09:55:33.865Z,23.60
2023-03-20T09:58:24.689Z,23.50
2023-03-20T10:00:52.103Z,24.70
2023-03-20T10:03:28.408Z,21.80
2023-03-20T10:06:03.744Z,28.30
2023-03-20T10:08:36.685Z,24.80
2023-03-20T10:11:16.375Z,22.40
2023-03-20T10:16:35.295Z,25.60
2023-03-20T10:19:11.894Z,27.00
2023-03-20T10:21:47.385Z,25.90
2023-03-20T10:24:28.890Z,22.40
2023-03-20T10:27:01.607Z,30.80
2023-03-20T10:29:59.729Z,28.80
2023-03-20T10:32:33.152Z,30.40
2023-03-20T10:35:09.038Z,30.60
2023-03-20T10:38:12.081Z,32.10
2023-03-20T10:40:41.970Z,31.40
2023-03-20T10:43:27.340Z,26.70
2023-03-20T10:46:17.571Z,23.60
2023-03-20T10:48:52.439Z,28.20
2023-03-20T10:51:23.561Z,22.00
2023-03-20T10:54:01.321Z,23.40
2023-03-20T10:56:39.604Z,28.70
2023-03-20T10:59:27.749Z,22.40
2023-03-20T11:01:54.913Z,15.20
2023-03-20T11:04:21.981Z,18.20
2023-03-20T11:07:07.304Z,18.00
2023-03-20T11:09:34.296Z,17.40
2023-03-20T11:12:03.877Z,18.90
2023-03-20T11:17:07.127Z,17.20
2023-03-20T11:19:40.575Z,19.20
2023-03-20T11:22:26.557Z,17.90
2023-03-20T11:25:01.763Z,15.50
2023-03-20T11:27:34.759Z,16.30
2023-03-20T11:30:08.565Z,23.60
2023-03-20T11:32:47.757Z,18.60
2023-03-20T11:35:24.151Z,24.20
2023-03-20T11:37:54.191Z,15.60
2023-03-20T11:40:34.506Z,23.40
2023-03-20T11:43:01.730Z,25.10
2023-03-20T11:45:44.919Z,24.50
2023-03-20T11:48:19.476Z,20.50
2023-03-20T11:50:52.934Z,21.90
2023-03-20T11:53:28.817Z,21.60
2023-03-20T11:56:21.025Z,22.60
2023-03-20T11:59:03.669Z,24.70
2023-03-20T12:01:58.219Z,23.30
2023-03-20T12:04:37.844Z,23.80
2023-03-20T12:07:17.691Z,24.90
2023-03-20T12:09:53.790Z,28.20
2023-03-20T12:12:45.901Z,28.20
2023-03-20T12:15:17.735Z,27.20
2023-03-20T12:17:56.936Z,27.80
2023-03-20T12:20:55.584Z,29.90
2023-03-20T12:23:44.572Z,22.60
2023-03-20T12:26:15.526Z,35.30
2023-03-20T12:28:45.643Z,28.00
2023-03-20T12:31:27.044Z,23.20
2023-03-20T12:34:17.508Z,30.60
2023-03-20T12:36:47.535Z,35.90
2023-03-20T12:39:18.856Z,28.30
2023-03-20T12:42:07.527Z,32.60
2023-03-20T12:45:01.238Z,31.70
2023-03-20T12:48:00.268Z,28.00
2023-03-20T12:50:40.095Z,29.50
2023-03-20T12:58:53.652Z,33.80
2023-03-20T13:01:26.636Z,34.70
2023-03-20T13:04:05.813Z,31.90
2023-03-20T13:06:52.109Z,31.20
2023-03-20T13:09:23.278Z,34.10
2023-03-20T13:12:05.204Z,33.90
2023-03-20T13:14:49.085Z,33.00
2023-03-20T13:17:29.671Z,35.60
2023-03-20T13:20:17.950Z,35.20
2023-03-20T13:22:54.065Z,43.10
2023-03-20T13:25:49.159Z,36.60
2023-03-20T13:28:23.478Z,36.70
2023-03-20T13:30:53.234Z,37.80
2023-03-20T13:33:36.430Z,37.90
2023-03-20T13:36:25.723Z,40.40
2023-03-20T13:39:01.210Z,40.30
2023-03-20T13:41:29.133Z,37.70
2023-03-20T13:44:02.089Z,38.20
2023-03-20T13:46:44.900Z,39.80
2023-03-20T13:49:59.054Z,36.10
2023-03-20T13:52:31.466Z,36.50
2023-03-20T13:55:36.311Z,37.90
2023-03-20T13:58:09.359Z,37.70
2023-03-20T14:00:36.571Z,40.40
2023-03-20T14:03:26.338Z,33.80
2023-03-20T14:05:53.422Z,38.80
2023-03-20T14:08:38.571Z,36.10
2023-03-20T14:11:13.563Z,39.10
2023-03-20T14:14:07.751Z,37.30
2023-03-20T14:16:34.681Z,33.80
2023-03-20T14:19:21.845Z,35.60
2023-03-20T14:21:52.365Z,40.30
2023-03-20T14:24:21.115Z,39.10
2023-03-20T14:27:00.220Z,33.60
2023-03-20T14:29:30.428Z,32.60
2023-03-20T14:32:24.294Z,34.10
2023-03-20T14:35:14.929Z,35.20
2023-03-20T14:38:21.623Z,36.10
2023-03-20T14:41:27.673Z,29.60
2023-03-20T14:44:03.816Z,33.60
2023-03-20T14:46:39.691Z,30.30
2023-03-20T14:49:48.859Z,31.70
2023-03-20T14:52:53.695Z,34.50
2023-03-20T14:55:20.731Z,35.00
2023-03-20T14:57:56.425Z,43.60
2023-03-20T15:00:27.592Z,36.80
2023-03-20T15:03:07.352Z,45.20
2023-03-20T15:05:37.245Z,41.10
2023-03-20T15:08:11.604Z,49.70
2023-03-20T15:10:47.655Z,42.10
2023-03-20T15:13:16.988Z,43.70
2023-03-20T15:15:58.049Z,46.80
2023-03-20T15:18:27.673Z,54.40
2023-03-20T15:20:58.030Z,44.60
2023-03-20T15:23:27.175Z,43.40
2023-03-20T15:25:54.064Z,42.30
2023-03-20T15:28:27.783Z,43.40
2023-03-20T15:30:59.687Z,40.90
2023-03-20T15:33:28.670Z,44.80
2023-03-20T15:35:56.791Z,42.40
2023-03-20T15:38:30.721Z,38.70
2023-03-20T15:40:58.185Z,43.00
2023-03-20T15:43:26.940Z,39.10
2023-03-20T15:46:16.930Z,41.90
2023-03-20T15:48:49.189Z,40.40
2023-03-20T15:51:17.516Z,37.00
2023-03-20T15:53:47.882Z,37.80
2023-03-20T15:56:19.576Z,45.40
2023-03-20T15:58:52.584Z,44.70
2023-03-20T16:01:23.425Z,34.30
2023-03-20T16:03:52.311Z,37.00
2023-03-20T16:06:25.734Z,38.90
2023-03-20T16:09:08.546Z,45.80
2023-03-20T16:11:41.569Z,43.70
2023-03-20T16:14:15.009Z,42.20
2023-03-20T16:16:42.642Z,38.80
2023-03-20T16:19:13.176Z,47.00
2023-03-20T16:21:44.992Z,32.70
2023-03-20T16:24:20.662Z,27.90
2023-03-20T16:26:51.519Z,23.00
2023-03-20T16:29:22.894Z,14.80
2023-03-20T16:31:59.773Z,13.40
2023-03-20T16:34:35.893Z,15.00
2023-03-20T16:37:08.561Z,13.60
2023-03-20T16:39:35.632Z,13.90
2023-03-20T16:42:19.263Z,12.60
2023-03-20T16:44:46.537Z,19.10
2023-03-20T16:47:20.955Z,14.70
2023-03-20T16:50:02.562Z,12.50
2023-03-20T16:52:32.613Z,15.70
2023-03-20T16:55:01.010Z,16.30
2023-03-20T16:57:33.478Z,15.10
2023-03-20T17:00:06.557Z,26.70
2023-03-20T17:02:41.149Z,54.10
2023-03-20T17:05:13.783Z,23.50
2023-03-20T17:07:42.776Z,16.60
2023-03-20T17:10:21.782Z,15.40
2023-03-20T17:12:51.541Z,21.20
2023-03-20T17:15:24.725Z,18.60
2023-03-20T17:17:52.218Z,17.50
2023-03-20T17:20:21.203Z,20.20
2023-03-20T17:22:48.329Z,25.40
2023-03-20T17:25:16.024Z,28.00
2023-03-20T17:27:43.325Z,24.10
2023-03-20T17:30:25.525Z,25.50
2023-03-20T17:32:53.481Z,24.40
2023-03-20T17:35:20.591Z,22.10
2023-03-20T17:37:49.139Z,25.60
2023-03-20T17:40:22.362Z,30.90
2023-03-20T17:42:49.359Z,27.20
2023-03-20T17:45:20.451Z,24.80
2023-03-20T17:47:48.040Z,26.90
2023-03-20T17:50:25.785Z,21.60
2023-03-20T17:52:53.822Z,19.20
2023-03-20T17:55:21.382Z,18.10
2023-03-20T17:57:49.035Z,24.40
2023-03-20T18:00:20.709Z,33.90
2023-03-20T18:02:48.329Z,31.40
2023-03-20T18:05:15.670Z,31.70
2023-03-20T18:07:42.706Z,23.50
2023-03-20T18:10:25.440Z,18.10
2023-03-20T18:12:52.386Z,16.10
2023-03-20T18:15:19.437Z,15.90
2023-03-20T18:17:46.508Z,13.30
2023-03-20T18:20:34.899Z,14.90
2023-03-20T18:23:02.044Z,14.10
2023-03-20T18:25:29.471Z,13.40
2023-03-20T18:27:58.699Z,13.40
2023-03-20T18:30:29.731Z,16.60
2023-03-20T18:32:56.676Z,15.10
2023-03-20T18:35:23.722Z,16.50
2023-03-20T18:37:50.815Z,17.80
2023-03-20T18:40:29.939Z,18.30
2023-03-20T18:43:00.160Z,18.10
2023-03-20T18:45:29.157Z,24.10
2023-03-20T18:47:57.468Z,25.40
2023-03-20T18:50:33.933Z,26.00
2023-03-20T18:53:03.890Z,19.70
2023-03-20T18:55:31.986Z,47.80
2023-03-20T18:57:59.137Z,33.90
2023-03-20T19:00:38.292Z,30.60
2023-03-20T19:03:06.019Z,27.50
2023-03-20T19:05:33.398Z,24.90
2023-03-20T19:08:01.366Z,27.20
2023-03-20T19:10:40.245Z,25.30
2023-03-20T19:13:07.851Z,27.10
2023-03-20T19:15:37.512Z,31.30
2023-03-20T19:18:15.646Z,36.90
2023-03-20T19:20:45.723Z,31.50
2023-03-20T19:23:15.300Z,28.50
2023-03-20T19:25:44.805Z,27.50
2023-03-20T19:28:42.084Z,30.90
2023-03-20T19:31:10.143Z,36.90
2023-03-20T19:33:39.264Z,41.40
2023-03-20T19:36:08.067Z,35.40
2023-03-20T19:38:38.161Z,35.30
2023-03-20T19:41:05.740Z,38.10
2023-03-20T19:43:33.377Z,32.70
2023-03-20T19:46:00.600Z,34.30
2023-03-20T19:48:46.841Z,37.30
2023-03-20T19:53:50.971Z,44.60
2023-03-20T19:56:22.390Z,43.30
2023-03-20T19:58:50.442Z,44.40
2023-03-20T20:01:24.071Z,42.50
2023-03-20T20:03:53.940Z,47.10
2023-03-20T20:06:22.423Z,48.40
2023-03-20T20:08:50.887Z,48.60
2023-03-20T20:11:20.719Z,47.60
2023-03-20T20:16:40.342Z,48.20
2023-03-20T20:19:07.883Z,47.30
2023-03-20T20:24:22.228Z,46.10
2023-03-20T20:26:55.572Z,48.00
2023-03-20T20:29:27.465Z,49.80
2023-03-20T20:31:54.792Z,49.30
2023-03-20T20:37:56.539Z,45.00
2023-03-20T20:39:57.904Z,48.00
2023-03-20T20:42:26.608Z,47.10
2023-03-20T20:44:53.717Z,46.70
2023-03-20T20:47:21.475Z,51.90
2023-03-20T20:49:49.161Z,49.70
2023-03-20T20:52:16.322Z,46.30
2023-03-20T20:54:43.546Z,50.90
2023-03-20T20:57:12.097Z,48.50
2023-03-20T20:59:40.511Z,47.80
2023-03-20T21:02:12.010Z,45.80
2023-03-20T21:04:41.339Z,40.20
2023-03-20T21:07:12.156Z,43.20
2023-03-20T21:09:40.989Z,50.60
2023-03-20T21:12:14.744Z,52.80
2023-03-20T21:14:50.882Z,42.70
2023-03-20T21:17:17.933Z,41.30
2023-03-20T21:19:45.152Z,40.80
2023-03-20T21:22:16.024Z,41.40
2023-03-20T21:24:43.638Z,41.10
2023-03-20T21:27:14.550Z,41.80
2023-03-20T21:29:43.385Z,37.60
2023-03-20T21:32:17.958Z,39.60
2023-03-20T21:34:45.121Z,40.90
2023-03-20T21:40:07.388Z,33.10
2023-03-20T21:42:35.181Z,31.80
2023-03-20T21:51:15.212Z,38.20
2023-03-20T21:56:56.610Z,36.10
2023-03-20T22:02:07.724Z,36.70
2023-03-20T22:05:22.156Z,39.00
2023-03-20T22:16:31.293Z,37.90
2023-03-20T22:22:00.108Z,35.10
2023-03-20T22:30:12.611Z,33.00
2023-03-20T22:33:10.923Z,35.70
2023-03-20T22:36:02.915Z,34.50
2023-03-20T22:38:55.716Z,31.90
2023-03-20T22:41:50.570Z,33.80
2023-03-20T22:44:34.014Z,32.30
2023-03-20T22:47:24.888Z,30.80
2023-03-20T22:50:11.185Z,33.30
2023-03-20T22:52:48.821Z,34.10
2023-03-20T22:55:17.772Z,33.10
2023-03-20T22:57:59.864Z,33.20
2023-03-20T23:00:32.605Z,31.40
2023-03-20T23:03:13.837Z,34.10
2023-03-20T23:05:44.819Z,35.40
2023-03-20T23:08:12.357Z,33.80
2023-03-20T23:10:44.868Z,38.00
2023-03-20T23:13:12.867Z,37.60
2023-03-20T23:15:39.952Z,37.00
2023-03-20T23:18:07.086Z,37.40
2023-03-20T23:20:34.212Z,35.00
2023-03-20T23:23:01.240Z,35.80
2023-03-20T23:25:38.835Z,29.80
2023-03-20T23:28:10.545Z,34.70
2023-03-20T23:30:46.557Z,31.80
2023-03-20T23:33:17.785Z,32.30
2023-03-20T23:35:44.724Z,32.30
2023-03-20T23:38:11.732Z,30.50
2023-03-20T23:40:38.942Z,27.80
2023-03-20T23:43:06.120Z,33.60
2023-03-20T23:45:32.988Z,33.20
2023-03-20T23:48:00.014Z,30.10
2023-03-20T23:50:34.284Z,31.20
2023-03-20T23:53:17.465Z,33.00
2023-03-20T23:55:47.819Z,36.50
2023-03-20T23:58:15.769Z,36.50
